createdAt,value
2023-04-15T00:03:42.166Z,7.86
2023-04-15T00:08:46.568Z,7.86
2023-04-15T00:13:49.416Z,7.87
2023-04-15T00:18:52.456Z,8.02
2023-04-15T00:23:56.936Z,8.14
2023-04-15T00:28:59.896Z,8.18
2023-04-15T00:34:03.670Z,8.06
2023-04-15T00:39:08.197Z,8.08
2023-04-15T00:44:11.499Z,8.16
2023-04-15T00:49:14.675Z,8.20
2023-04-15T00:54:18.925Z,8.12
2023-04-15T00:59:22.629Z,8.10
2023-04-15T01:04:26.679Z,8.01
2023-04-15T01:09:30.999Z,7.93
2023-04-15T01:14:35.250Z,7.97
2023-04-15T01:19:38.208Z,7.94
2023-04-15T01:24:44.089Z,7.88
2023-04-15T01:29:48.579Z,7.89
2023-04-15T01:34:51.458Z,7.81
2023-04-15T01:39:54.339Z,7.77
2023-04-15T01:45:00.199Z,7.74
2023-04-15T01:50:02.994Z,7.72
2023-04-15T01:55:08.037Z,7.70
2023-04-15T02:00:13.168Z,7.67
2023-04-15T02:05:18.720Z,7.64
2023-04-15T02:10:23.563Z,7.54
2023-04-15T02:15:27.825Z,7.58
2023-04-15T02:20:32.178Z,7.61
2023-04-15T02:25:35.046Z,7.56
2023-04-15T02:30:42.210Z,7.54
2023-04-15T02:35:45.520Z,7.46
2023-04-15T02:40:49.764Z,7.49
2023-04-15T02:45:54.329Z,7.58
2023-04-15T02:51:12.480Z,7.54
2023-04-15T02:56:17.126Z,7.50
2023-04-15T03:01:21.535Z,7.40
2023-04-15T03:06:24.763Z,7.39
2023-04-15T03:11:28.202Z,7.16
2023-04-15T03:16:32.448Z,7.19
2023-04-15T03:21:35.459Z,7.26
2023-04-15T03:26:38.933Z,7.05
2023-04-15T03:31:49.304Z,6.82
2023-04-15T03:36:52.920Z,6.92
2023-04-15T03:41:56.453Z,6.94
2023-04-15T03:47:00.726Z,6.78
2023-04-15T03:52:03.686Z,6.92
2023-04-15T03:57:06.584Z,6.88
2023-04-15T04:02:10.843Z,6.86
2023-04-15T04:07:16.960Z,6.85
2023-04-15T04:12:19.814Z,6.69
2023-04-15T04:17:24.043Z,6.61
2023-04-15T04:22:26.869Z,6.69
2023-04-15T04:27:29.740Z,6.42
2023-04-15T04:32:34.071Z,6.49
2023-04-15T04:37:36.969Z,6.43
2023-04-15T04:42:40.258Z,6.51
2023-04-15T04:47:44.581Z,6.61
2023-04-15T04:52:47.648Z,6.72
2023-04-15T04:57:50.647Z,6.74
2023-04-15T05:02:54.931Z,6.51
2023-04-15T05:07:58.977Z,6.61
2023-04-15T05:13:02.499Z,6.63
2023-04-15T05:18:06.723Z,6.24
2023-04-15T05:23:09.665Z,6.49
2023-04-15T05:28:12.614Z,6.78
2023-04-15T05:33:17.635Z,7.09
2023-04-15T05:38:20.522Z,7.33
2023-04-15T05:43:23.380Z,7.72
2023-04-15T05:48:27.587Z,7.95
2023-04-15T05:53:30.421Z,8.14
2023-04-15T05:58:33.325Z,8.34
2023-04-15T06:03:37.958Z,8.06
2023-04-15T06:08:40.914Z,8.04
2023-04-15T06:13:43.866Z,8.04
2023-04-15T06:18:48.102Z,8.09
2023-04-15T06:23:51.027Z,8.00
2023-04-15T06:28:54.038Z,7.87
2023-04-15T06:33:58.281Z,8.07
2023-04-15T06:39:01.498Z,8.08
2023-04-15T06:44:04.869Z,7.78
2023-04-15T06:49:09.140Z,7.75
2023-04-15T06:54:12.071Z,7.63
2023-04-15T06:59:15.351Z,7.57
2023-04-15T07:04:20.399Z,7.63
2023-04-15T07:09:23.620Z,7.54
2023-04-15T07:14:26.647Z,7.49
2023-04-15T07:19:31.125Z,7.52
2023-04-15T07:24:34.111Z,7.09
2023-04-15T07:29:37.060Z,7.32
2023-04-15T07:34:41.623Z,7.35
2023-04-15T07:39:44.561Z,7.32
2023-04-15T07:44:47.508Z,6.92
2023-04-15T07:49:52.429Z,7.13
2023-04-15T07:54:55.745Z,7.22
2023-04-15T07:59:58.660Z,7.37
2023-04-15T08:05:03.285Z,7.29
2023-04-15T08:10:07.459Z,7.41
2023-04-15T08:15:11.206Z,7.30
2023-04-15T08:20:18.175Z,7.40
2023-04-15T08:25:21.302Z,7.45
2023-04-15T08:30:24.575Z,7.48
2023-04-15T08:35:28.911Z,7.21
2023-04-15T08:40:41.819Z,7.53
2023-04-15T08:45:46.788Z,7.46
2023-04-15T08:50:52.201Z,7.85
2023-04-15T08:55:58.570Z,7.27
2023-04-15T09:01:02.190Z,7.77
2023-04-15T09:06:07.535Z,7.64
2023-04-15T09:11:10.599Z,7.83
2023-04-15T09:16:15.786Z,7.77
2023-04-15T09:21:20.420Z,7.93
2023-04-15T09:26:32.147Z,7.71
2023-04-15T09:31:35.042Z,7.80
2023-04-15T09:36:58.308Z,7.77
2023-04-15T09:42:09.092Z,7.78
2023-04-15T09:47:28.482Z,7.71
2023-04-15T09:52:32.865Z,7.70
2023-04-15T09:57:37.298Z,7.55
2023-04-15T10:02:41.905Z,7.69
2023-04-15T10:07:48.290Z,7.84
2023-04-15T10:12:53.323Z,7.87
2023-04-15T10:17:57.527Z,7.85
2023-04-15T10:23:02.956Z,7.88
2023-04-15T10:28:07.618Z,7.90
2023-04-15T10:33:11.317Z,7.99
2023-04-15T10:38:35.061Z,7.77
2023-04-15T10:43:38.584Z,8.07
2023-04-15T10:48:48.800Z,8.11
2023-04-15T10:53:57.728Z,8.05
2023-04-15T10:59:02.086Z,8.01
2023-04-15T11:04:05.245Z,7.97
2023-04-15T11:09:09.723Z,8.03
2023-04-15T11:14:16.644Z,8.18
2023-04-15T11:19:19.665Z,8.00
2023-04-15T11:24:27.438Z,8.10
2023-04-15T11:29:32.171Z,8.19
2023-04-15T11:34:36.114Z,8.13
2023-04-15T11:39:40.615Z,8.28
2023-04-15T11:44:43.487Z,8.26
2023-04-15T11:49:46.382Z,8.22
2023-04-15T11:54:50.631Z,8.25
2023-04-15T11:59:56.203Z,8.25
2023-04-15T12:05:05.288Z,8.24
2023-04-15T12:10:09.677Z,8.25
2023-04-15T12:15:12.497Z,8.22
2023-04-15T12:20:16.861Z,8.27
2023-04-15T12:25:21.111Z,8.30
2023-04-15T12:30:24.105Z,8.34
2023-04-15T12:35:26.898Z,8.29
2023-04-15T12:40:31.204Z,8.33
2023-04-15T12:45:34.177Z,8.34
2023-04-15T12:50:37.243Z,8.28
2023-04-15T12:55:41.724Z,8.31
2023-04-15T13:00:44.819Z,8.20
2023-04-15T13:05:47.741Z,8.29
2023-04-15T13:10:52.008Z,8.33
2023-04-15T13:15:54.992Z,8.37
2023-04-15T13:20:57.948Z,8.34
2023-04-15T13:26:02.241Z,8.38
2023-04-15T13:31:06.050Z,8.49
2023-04-15T13:36:09.578Z,8.50
2023-04-15T13:41:13.796Z,8.54
2023-04-15T13:46:16.822Z,8.58
2023-04-15T13:51:19.712Z,8.55
2023-04-15T13:56:23.925Z,8.49
2023-04-15T14:01:27.217Z,8.57
2023-04-15T14:06:31.618Z,8.44
2023-04-15T14:11:36.755Z,8.47
2023-04-15T14:16:40.150Z,8.66
2023-04-15T14:21:43.047Z,8.56
2023-04-15T14:26:47.241Z,8.40
2023-04-15T14:32:04.268Z,8.64
2023-04-15T14:37:12.701Z,8.65
2023-04-15T14:42:16.963Z,8.70
2023-04-15T14:47:19.942Z,8.67
2023-04-15T14:52:22.840Z,8.69
2023-04-15T14:57:27.026Z,8.70
2023-04-15T15:07:36.106Z,8.73
2023-04-15T15:12:40.306Z,8.90
2023-04-15T15:17:43.288Z,8.92
2023-04-15T15:22:46.272Z,8.87
2023-04-15T15:27:50.814Z,8.90
2023-04-15T15:32:53.857Z,8.89
2023-04-15T15:37:56.715Z,8.95
2023-04-15T15:43:00.935Z,8.96
2023-04-15T15:48:03.950Z,8.98
2023-04-15T15:53:06.831Z,8.87
2023-04-15T15:58:11.010Z,8.79
2023-04-15T16:03:14.182Z,8.88
2023-04-15T16:08:17.114Z,8.92
2023-04-15T16:13:21.354Z,8.98
2023-04-15T16:18:24.161Z,9.00
2023-04-15T16:23:27.096Z,9.32
2023-04-15T16:28:31.324Z,9.34
2023-04-15T16:33:34.172Z,9.33
2023-04-15T16:38:36.962Z,9.18
2023-04-15T16:43:41.206Z,9.15
2023-04-15T16:48:44.026Z,9.12
2023-04-15T16:53:46.927Z,9.06
2023-04-15T16:58:51.072Z,9.08
2023-04-15T17:03:56.058Z,9.04
2023-04-15T17:08:59.054Z,8.96
2023-04-15T17:14:03.578Z,9.10
2023-04-15T17:19:06.589Z,9.11
2023-04-15T17:24:09.427Z,9.08
2023-04-15T17:29:13.646Z,8.91
2023-04-15T17:34:16.510Z,9.09
2023-04-15T17:39:19.417Z,9.08
2023-04-15T17:44:25.208Z,9.10
2023-04-15T17:49:28.456Z,9.04
2023-04-15T17:54:31.264Z,8.83
2023-04-15T17:59:35.456Z,8.77
2023-04-15T18:04:40.521Z,8.65
2023-04-15T18:09:44.295Z,8.78
2023-04-15T18:14:48.495Z,8.53
2023-04-15T18:19:51.601Z,8.66
2023-04-15T18:24:54.593Z,8.65
2023-04-15T18:29:58.857Z,8.65
2023-04-15T18:35:02.008Z,8.68
2023-04-15T18:40:05.731Z,8.55
2023-04-15T18:45:10.874Z,8.51
2023-04-15T18:50:13.698Z,8.48
2023-04-15T18:55:19.083Z,8.29
2023-04-15T19:00:23.499Z,8.59
2023-04-15T19:05:27.071Z,8.39
2023-04-15T19:10:29.947Z,8.48
2023-04-15T19:15:34.149Z,8.18
2023-04-15T19:20:39.197Z,8.56
2023-04-15T19:25:42.839Z,8.59
2023-04-15T19:30:47.199Z,8.66
2023-04-15T19:35:50.366Z,8.65
2023-04-15T19:40:53.250Z,8.72
2023-04-15T19:45:57.511Z,8.79
2023-04-15T19:51:00.608Z,8.81
2023-04-15T19:56:03.550Z,8.88
2023-04-15T20:01:07.949Z,8.58
2023-04-15T20:06:10.914Z,8.73
2023-04-15T20:11:15.189Z,8.64
2023-04-15T20:16:19.536Z,8.75
2023-04-15T20:21:22.834Z,8.46
2023-04-15T20:26:25.865Z,8.63
2023-04-15T20:31:31.213Z,8.73
2023-04-15T20:36:34.322Z,8.73
2023-04-15T20:41:37.158Z,8.65
2023-04-15T20:46:41.543Z,8.68
2023-04-15T20:51:44.453Z,8.85
2023-04-15T20:56:47.283Z,8.87
2023-04-15T21:01:52.298Z,8.87
2023-04-15T21:06:55.489Z,8.70
2023-04-15T21:12:01.750Z,8.70
2023-04-15T21:22:43.490Z,8.89
2023-04-15T21:27:46.167Z,8.88
2023-04-15T21:32:49.059Z,8.92
2023-04-15T21:37:53.284Z,8.88
2023-04-15T21:42:56.157Z,8.89
2023-04-15T21:48:07.260Z,8.95
2023-04-15T21:53:13.027Z,8.94
2023-04-15T21:58:15.952Z,8.89
2023-04-15T22:03:19.310Z,8.99
2023-04-15T22:08:23.772Z,8.87
2023-04-15T22:13:26.885Z,8.96
2023-04-15T22:18:29.823Z,8.94
2023-04-15T22:23:34.004Z,8.79
2023-04-15T22:28:36.910Z,8.83
2023-04-15T22:33:39.879Z,8.86
2023-04-15T22:38:44.091Z,8.86
2023-04-15T22:43:47.232Z,8.81
2023-04-15T22:48:50.159Z,8.89
2023-04-15T22:53:54.703Z,8.88
2023-04-15T22:58:57.536Z,8.84
2023-04-15T23:04:05.992Z,8.80
2023-04-15T23:09:24.769Z,8.83
2023-04-15T23:14:28.070Z,8.80
2023-04-15T23:19:30.923Z,8.86
2023-04-15T23:24:35.169Z,8.86
2023-04-15T23:29:37.998Z,8.90
2023-04-15T23:34:40.918Z,8.90
2023-04-15T23:39:45.170Z,8.89
2023-04-15T23:44:48.027Z,8.86
2023-04-15T23:49:50.860Z,8.78
2023-04-15T23:54:55.104Z,8.44
2023-04-15T23:59:57.925Z,8.77
